Wednesday, November 24, 2004

Aviation Weather in Your Aggregator

Aside from the fact that it's starting to get a little chilly outside, I know that Fall has arrived based on this morning's aviation weather forecast:

KAUS 241134Z 241212 30015G25KT P6SM BKN025

FM2000 32012KT P6SM FEW040
FM2200 34009KT P6SM SKC
FM0100 33003KT P6SM SKC
What does this have to do with Tablet PC's? Well, since I know that tablets are particularly popular with pilots, I thought you might be interested in a service I host that provides Terminal Area Forecast (TAF) information as RSS feeds.

Just point your RSS reader to the following URL, replacing 'KAUS' with any ICAO identifier:

You can get a (mobile-friendly) web version of the same information at: